Terminal Aerodrome Forecast
Issued by NWS

Home | Current Version | Previous Version | Text Only | Print | Product List | Glossary On
Versions: 1 2 3 4 5 6 7 8 9 10 11 12 13 14 15 16 17
055
FTUS46 KHNX 101720
TAFMCE
TAF
KMCE 101720Z 1018/1118 VRB03KT P6SM SKC
     FM110000 33006KT P6SM BKN250
     FM110200 32004KT 4SM HZ BR BKN250
     FM110800 00000KT 2SM BR SCT250
     FM111700 13003KT 4SM BR BKN250=

USA.gov is the U.S. government's official web portal to all federal, state and local government web resources and services.